ADDS METAR Data INFO
IDs: Format: Raw Decoded Include TAF

Data at: 0734 UTC 18 Oct 2017

KAAF 180653Z AUTO 05008KT 10SM CLR 15/11 A3016 RMK AO2 SLP212 T01500111
KAAF 180553Z AUTO 05008KT 10SM CLR 16/12 A3016 RMK AO2 SLP214 T01560117 10211 20156 58005
KAAF 180453Z AUTO 05009KT 10SM CLR 16/12 A3018 RMK AO2 SLP219 T01610117 402720161
KAAF 180353Z AUTO 05009KT 10SM CLR 17/13 A3018 RMK AO2 SLP219 T01670128
KAAF 180253Z AUTO 05006KT 10SM CLR 18/14 A3018 RMK AO2 SLP219 T01780139 51017
KAAF 180153Z AUTO 04008KT 10SM CLR 19/14 A3017 RMK AO2 SLP215 T01890144
KAAF 180053Z AUTO 05006KT 10SM CLR 19/16 A3015 RMK AO2 SLP208 T01940161
KAAF 172353Z AUTO 06006KT 10SM CLR 21/17 A3013 RMK AO2 SLP201 T02110167 10272 20211 53014
KAAF 172253Z AUTO 04009KT 10SM CLR 23/17 A3010 RMK AO2 SLP193 T02280167
KAAF 172153Z AUTO 04010KT 10SM CLR 25/17 A3008 RMK AO2 SLP187 T02500167
KAAF 172053Z AUTO 05009KT 10SM BKN043 26/17 A3008 RMK AO2 SLP187 T02560172 56013
KAAF 171953Z AUTO 04009KT 10SM FEW050 27/18 A3009 RMK AO2 SLP189 T02670178
KAAF 171853Z AUTO 05012KT 10SM CLR 27/18 A3010 RMK AO2 SLP191 T02670178
KAAF 171753Z AUTO 04006KT 10SM CLR 24/17 A3012 RMK AO2 SLP200 T02440172 10250 20178 58010
KAAF 171653Z AUTO 07011KT 10SM FEW043 23/16 A3015 RMK AO2 SLP210 T02280156
KAAF 171553Z AUTO 05011KT 10SM CLR 22/15 A3015 RMK AO2 SLP211 T02220150
KAAF 171453Z AUTO 06009G19KT 10SM CLR 20/14 A3015 RMK AO2 SLP210 T02000139 51020
KAAF 171353Z AUTO 06010KT 10SM CLR 19/14 A3014 RMK AO2 SLP207 T01890139
KAAF 171253Z AUTO 05010KT 10SM FEW022 18/13 A3012 RMK AO2 SLP199 T01780133
KAAF 171246Z AUTO 05010KT 10SM SCT021 18/13 A3012 RMK AO2 T01780133
KAAF 171208Z AUTO 05009KT 10SM BKN021 18/13 A3010 RMK AO2 T01830133
KAAF 171153Z AUTO 05010KT 10SM FEW020 18/13 A3010 RMK AO2 SLP191 T01780133 10194 20178 53018
KAAF 171053Z AUTO 05010KT 10SM FEW020 18/14 A3008 RMK AO2 SLP184 T01780139
KAAF 170953Z AUTO 05011KT 10SM CLR 18/14 A3005 RMK AO2 SLP176 T01830139
KAAF 170853Z AUTO 05010KT 10SM CLR 18/13 A3004 RMK AO2 SLP173 T01830133 58003
KAAF 170753Z AUTO 04012KT 10SM CLR 18/13 A3005 RMK AO2 SLP175 T01830128
KAAF 170653Z AUTO 04011KT 10SM SCT060 19/12 A3005 RMK AO2 SLP176 T01890122
KAAF 170553Z AUTO 03012KT 10SM CLR 19/13 A3005 RMK AO2 SLP176 T01940128 10244 20194 58001
KAAF 170453Z AUTO 03012G20KT 10SM CLR 20/13 A3005 RMK AO2 SLP177 T02000133 403220200
KAAF 170353Z AUTO 03013KT 10SM OVC055 21/14 A3005 RMK AO2 SLP176 T02110144
KAAF 170253Z AUTO 01014KT 10SM CLR 22/18 A3005 RMK AO2 SLP177 T02170183 53022
KAAF 170153Z AUTO 36010KT 10SM BKN060 23/21 A3003 RMK AO2 SLP169 T02330211
KAAF 170053Z AUTO 01004KT 10SM BKN060 23/23 A3001 RMK AO2 SLP161 T02330228
KAAF 162353Z AUTO 05004KT 10SM CLR 24/23 A2999 RMK AO2 SLP155 T02390228 10322 20239 53017
KAAF 162253Z AUTO 06008KT 10SM BKN060 24/23 A2998 RMK AO2 LTG DSNT E TSE2157B2159E22 SLP150 T02440228
KAAF 162244Z AUTO 08007KT 10SM FEW043 SCT060 25/23 A2997 RMK AO2 LTG DSNT E TSE2157B2159E22 T02500228
KAAF 162228Z AUTO 08008KT 10SM VCTS FEW033 BKN042 26/23 A2997 RMK AO2 LTG DSNT E TSE2157B2159E22 T02560228
KAAF 162153Z AUTO 03013KT 10SM TS FEW023 BKN034 OVC060 27/23 A2994 RMK AO2 LTG DSNT NE AND E TSB38 SLP139 T02670228
KAAF 162144Z AUTO 03014KT 10SM TS SCT027 BKN034 BKN060 27/23 A2994 RMK AO2 LTG DSNT NE AND E TSB38 T02670228
KAAF 162134Z AUTO 10SM VCTS FEW037 SCT060 29/24 A2993 RMK AO2 LTG DSNT NE AND E T02890239
KAAF 162053Z AUTO 21008KT 10SM FEW055 30/24 A2994 RMK AO2 LTG DSNT N AND NE SLP138 T03000244 56016
KAAF 161953Z AUTO 19010KT 10SM BKN046 BKN055 29/24 A2994 RMK AO2 LTG DSNT N SLP139 T02940239